sensor_id;sensor_type;location;lat;lon;timestamp;temperature;humidity
59975;DHT22;62136;-35.664;-63.766;2023-03-04T00:00:02;32.60;35.20
59975;DHT22;62136;-35.664;-63.766;2023-03-04T00:02:29;32.60;35.20
59975;DHT22;62136;-35.664;-63.766;2023-03-04T00:04:56;32.60;35.70
59975;DHT22;62136;-35.664;-63.766;2023-03-04T00:07:23;32.60;35.20
59975;DHT22;62136;-35.664;-63.766;2023-03-04T00:09:50;32.50;35.30
59975;DHT22;62136;-35.664;-63.766;2023-03-04T00:12:17;32.50;35.30
59975;DHT22;62136;-35.664;-63.766;2023-03-04T00:14:44;32.50;35.30
59975;DHT22;62136;-35.664;-63.766;2023-03-04T00:17:11;32.50;35.30
59975;DHT22;62136;-35.664;-63.766;2023-03-04T00:19:39;32.50;35.30
59975;DHT22;62136;-35.664;-63.766;2023-03-04T00:22:07;32.50;35.30
59975;DHT22;62136;-35.664;-63.766;2023-03-04T00:24:34;32.50;35.40
59975;DHT22;62136;-35.664;-63.766;2023-03-04T00:27:01;32.40;35.30
59975;DHT22;62136;-35.664;-63.766;2023-03-04T00:29:28;32.40;35.40
59975;DHT22;62136;-35.664;-63.766;2023-03-04T00:31:55;32.40;35.40
59975;DHT22;62136;-35.664;-63.766;2023-03-04T00:34:22;32.40;35.40
59975;DHT22;62136;-35.664;-63.766;2023-03-04T00:36:49;32.40;35.50
59975;DHT22;62136;-35.664;-63.766;2023-03-04T00:39:16;32.40;35.50
59975;DHT22;62136;-35.664;-63.766;2023-03-04T00:41:43;32.30;35.50
59975;DHT22;62136;-35.664;-63.766;2023-03-04T00:44:11;32.30;35.60
59975;DHT22;62136;-35.664;-63.766;2023-03-04T00:46:38;32.30;35.60
59975;DHT22;62136;-35.664;-63.766;2023-03-04T00:49:05;32.30;35.60
59975;DHT22;62136;-35.664;-63.766;2023-03-04T00:51:32;32.30;35.60
59975;DHT22;62136;-35.664;-63.766;2023-03-04T00:54:00;32.30;35.70
59975;DHT22;62136;-35.664;-63.766;2023-03-04T00:56:27;32.20;35.70
59975;DHT22;62136;-35.664;-63.766;2023-03-04T00:58:54;32.20;35.70
59975;DHT22;62136;-35.664;-63.766;2023-03-04T01:01:21;32.10;35.60
59975;DHT22;62136;-35.664;-63.766;2023-03-04T01:03:48;32.20;35.70
59975;DHT22;62136;-35.664;-63.766;2023-03-04T01:06:15;32.10;35.70
59975;DHT22;62136;-35.664;-63.766;2023-03-04T01:08:42;32.10;35.70
59975;DHT22;62136;-35.664;-63.766;2023-03-04T01:11:09;32.10;35.70
59975;DHT22;62136;-35.664;-63.766;2023-03-04T01:13:36;32.10;35.80
59975;DHT22;62136;-35.664;-63.766;2023-03-04T01:16:04;32.10;35.80
59975;DHT22;62136;-35.664;-63.766;2023-03-04T01:18:31;32.00;35.80
59975;DHT22;62136;-35.664;-63.766;2023-03-04T01:20:58;32.10;35.90
59975;DHT22;62136;-35.664;-63.766;2023-03-04T01:23:26;32.00;35.80
59975;DHT22;62136;-35.664;-63.766;2023-03-04T01:25:53;32.00;35.90
59975;DHT22;62136;-35.664;-63.766;2023-03-04T01:28:20;32.00;36.40
59975;DHT22;62136;-35.664;-63.766;2023-03-04T01:30:47;32.00;35.90
59975;DHT22;62136;-35.664;-63.766;2023-03-04T01:33:14;31.90;36.00
59975;DHT22;62136;-35.664;-63.766;2023-03-04T01:35:41;31.90;36.00
59975;DHT22;62136;-35.664;-63.766;2023-03-04T01:38:08;31.90;36.10
59975;DHT22;62136;-35.664;-63.766;2023-03-04T01:40:36;31.90;36.10
59975;DHT22;62136;-35.664;-63.766;2023-03-04T01:43:03;31.90;36.10
59975;DHT22;62136;-35.664;-63.766;2023-03-04T01:45:31;31.90;36.20
59975;DHT22;62136;-35.664;-63.766;2023-03-04T01:47:59;31.90;36.20
59975;DHT22;62136;-35.664;-63.766;2023-03-04T01:50:31;31.80;36.10
59975;DHT22;62136;-35.664;-63.766;2023-03-04T01:53:03;31.80;36.20
59975;DHT22;62136;-35.664;-63.766;2023-03-04T01:55:30;31.80;36.30
59975;DHT22;62136;-35.664;-63.766;2023-03-04T01:57:57;31.70;36.20
59975;DHT22;62136;-35.664;-63.766;2023-03-04T02:00:30;31.70;36.30
59975;DHT22;62136;-35.664;-63.766;2023-03-04T02:03:19;31.70;36.30
59975;DHT22;62136;-35.664;-63.766;2023-03-04T02:05:51;31.70;36.30
59975;DHT22;62136;-35.664;-63.766;2023-03-04T02:08:21;31.70;36.40
59975;DHT22;62136;-35.664;-63.766;2023-03-04T02:10:48;31.70;36.40
59975;DHT22;62136;-35.664;-63.766;2023-03-04T02:13:19;31.60;36.40
59975;DHT22;62136;-35.664;-63.766;2023-03-04T02:15:50;31.60;36.50
59975;DHT22;62136;-35.664;-63.766;2023-03-04T02:18:24;31.60;36.50
59975;DHT22;62136;-35.664;-63.766;2023-03-04T02:23:43;31.60;36.60
59975;DHT22;62136;-35.664;-63.766;2023-03-04T02:26:18;31.50;36.50
59975;DHT22;62136;-35.664;-63.766;2023-03-04T02:28:49;31.50;36.60
59975;DHT22;62136;-35.664;-63.766;2023-03-04T02:31:34;31.50;36.60
59975;DHT22;62136;-35.664;-63.766;2023-03-04T02:34:06;31.50;36.70
59975;DHT22;62136;-35.664;-63.766;2023-03-04T02:36:35;31.50;36.70
59975;DHT22;62136;-35.664;-63.766;2023-03-04T02:39:49;31.50;36.80
59975;DHT22;62136;-35.664;-63.766;2023-03-04T02:42:01;31.50;36.80
59975;DHT22;62136;-35.664;-63.766;2023-03-04T02:44:36;31.50;36.80
59975;DHT22;62136;-35.664;-63.766;2023-03-04T02:47:07;31.40;36.70
59975;DHT22;62136;-35.664;-63.766;2023-03-04T02:49:36;31.50;36.80
59975;DHT22;62136;-35.664;-63.766;2023-03-04T02:52:26;31.40;36.80
59975;DHT22;62136;-35.664;-63.766;2023-03-04T02:54:53;31.40;36.80
59975;DHT22;62136;-35.664;-63.766;2023-03-04T02:57:20;31.40;36.80
59975;DHT22;62136;-35.664;-63.766;2023-03-04T02:59:47;31.40;36.80
59975;DHT22;62136;-35.664;-63.766;2023-03-04T03:02:14;31.40;36.80
59975;DHT22;62136;-35.664;-63.766;2023-03-04T03:04:41;31.40;36.90
59975;DHT22;62136;-35.664;-63.766;2023-03-04T03:07:12;31.40;36.90
59975;DHT22;62136;-35.664;-63.766;2023-03-04T03:09:42;31.40;36.80
59975;DHT22;62136;-35.664;-63.766;2023-03-04T03:12:09;31.40;36.90
59975;DHT22;62136;-35.664;-63.766;2023-03-04T03:14:36;31.40;37.00
59975;DHT22;62136;-35.664;-63.766;2023-03-04T03:17:06;31.30;36.90
59975;DHT22;62136;-35.664;-63.766;2023-03-04T03:19:36;31.30;36.90
59975;DHT22;62136;-35.664;-63.766;2023-03-04T03:22:03;31.30;37.00
59975;DHT22;62136;-35.664;-63.766;2023-03-04T03:24:33;31.30;37.00
59975;DHT22;62136;-35.664;-63.766;2023-03-04T03:27:00;31.30;37.00
59975;DHT22;62136;-35.664;-63.766;2023-03-04T03:29:27;31.20;37.00
59975;DHT22;62136;-35.664;-63.766;2023-03-04T03:31:54;31.20;37.00
59975;DHT22;62136;-35.664;-63.766;2023-03-04T03:34:22;31.30;37.10
59975;DHT22;62136;-35.664;-63.766;2023-03-04T03:36:49;31.20;37.10
59975;DHT22;62136;-35.664;-63.766;2023-03-04T03:39:16;31.20;37.10
59975;DHT22;62136;-35.664;-63.766;2023-03-04T03:41:43;31.20;37.10
59975;DHT22;62136;-35.664;-63.766;2023-03-04T03:44:10;31.20;37.20
59975;DHT22;62136;-35.664;-63.766;2023-03-04T03:46:37;31.20;37.30
59975;DHT22;62136;-35.664;-63.766;2023-03-04T03:49:04;31.10;37.20
59975;DHT22;62136;-35.664;-63.766;2023-03-04T03:51:31;31.00;37.20
59975;DHT22;62136;-35.664;-63.766;2023-03-04T03:53:58;31.00;37.20
59975;DHT22;62136;-35.664;-63.766;2023-03-04T03:56:25;31.00;37.20
59975;DHT22;62136;-35.664;-63.766;2023-03-04T03:58:52;31.00;37.30
59975;DHT22;62136;-35.664;-63.766;2023-03-04T04:01:19;31.00;37.30
59975;DHT22;62136;-35.664;-63.766;2023-03-04T04:03:46;31.00;37.30
59975;DHT22;62136;-35.664;-63.766;2023-03-04T04:06:13;31.00;37.40
59975;DHT22;62136;-35.664;-63.766;2023-03-04T04:08:40;31.00;37.50
59975;DHT22;62136;-35.664;-63.766;2023-03-04T04:11:09;30.90;37.40
59975;DHT22;62136;-35.664;-63.766;2023-03-04T04:13:36;30.90;37.40
59975;DHT22;62136;-35.664;-63.766;2023-03-04T04:16:04;30.90;37.40
59975;DHT22;62136;-35.664;-63.766;2023-03-04T04:18:34;30.90;37.40
59975;DHT22;62136;-35.664;-63.766;2023-03-04T04:21:01;30.90;37.50
59975;DHT22;62136;-35.664;-63.766;2023-03-04T04:23:31;30.90;37.50
59975;DHT22;62136;-35.664;-63.766;2023-03-04T04:25:58;30.90;37.60
59975;DHT22;62136;-35.664;-63.766;2023-03-04T04:28:25;30.80;37.50
59975;DHT22;62136;-35.664;-63.766;2023-03-04T04:30:52;30.80;37.60
59975;DHT22;62136;-35.664;-63.766;2023-03-04T04:33:19;30.80;37.50
59975;DHT22;62136;-35.664;-63.766;2023-03-04T04:35:46;30.70;37.60
59975;DHT22;62136;-35.664;-63.766;2023-03-04T04:38:13;30.70;37.60
59975;DHT22;62136;-35.664;-63.766;2023-03-04T04:40:40;30.70;37.60
59975;DHT22;62136;-35.664;-63.766;2023-03-04T04:43:08;30.70;37.60
59975;DHT22;62136;-35.664;-63.766;2023-03-04T04:45:35;30.70;37.60
59975;DHT22;62136;-35.664;-63.766;2023-03-04T04:48:02;30.70;37.70
59975;DHT22;62136;-35.664;-63.766;2023-03-04T04:50:29;30.70;37.70
59975;DHT22;62136;-35.664;-63.766;2023-03-04T04:52:56;30.70;37.70
59975;DHT22;62136;-35.664;-63.766;2023-03-04T04:55:23;30.60;37.70
59975;DHT22;62136;-35.664;-63.766;2023-03-04T04:57:50;30.60;37.70
59975;DHT22;62136;-35.664;-63.766;2023-03-04T05:00:17;30.60;37.70
59975;DHT22;62136;-35.664;-63.766;2023-03-04T05:02:44;30.60;37.80
59975;DHT22;62136;-35.664;-63.766;2023-03-04T05:05:11;30.60;37.80
59975;DHT22;62136;-35.664;-63.766;2023-03-04T05:07:38;30.60;37.90
59975;DHT22;62136;-35.664;-63.766;2023-03-04T05:10:05;30.60;37.80
59975;DHT22;62136;-35.664;-63.766;2023-03-04T05:12:33;30.50;37.70
59975;DHT22;62136;-35.664;-63.766;2023-03-04T05:15:00;30.50;37.70
59975;DHT22;62136;-35.664;-63.766;2023-03-04T05:17:26;30.60;37.80
59975;DHT22;62136;-35.664;-63.766;2023-03-04T05:19:53;30.50;37.70
59975;DHT22;62136;-35.664;-63.766;2023-03-04T05:22:20;30.50;38.10
59975;DHT22;62136;-35.664;-63.766;2023-03-04T05:24:47;30.50;37.80
59975;DHT22;62136;-35.664;-63.766;2023-03-04T05:27:14;30.50;37.80
59975;DHT22;62136;-35.664;-63.766;2023-03-04T05:29:41;30.50;37.80
59975;DHT22;62136;-35.664;-63.766;2023-03-04T05:32:10;30.50;37.80
59975;DHT22;62136;-35.664;-63.766;2023-03-04T05:34:37;30.50;37.90
59975;DHT22;62136;-35.664;-63.766;2023-03-04T05:37:04;30.50;37.80
59975;DHT22;62136;-35.664;-63.766;2023-03-04T05:39:31;30.50;37.90
59975;DHT22;62136;-35.664;-63.766;2023-03-04T05:42:20;30.40;37.80
59975;DHT22;62136;-35.664;-63.766;2023-03-04T05:47:33;30.40;37.90
59975;DHT22;62136;-35.664;-63.766;2023-03-04T05:50:00;30.40;37.90
59975;DHT22;62136;-35.664;-63.766;2023-03-04T05:52:27;30.40;37.90
59975;DHT22;62136;-35.664;-63.766;2023-03-04T05:54:54;30.40;37.90
59975;DHT22;62136;-35.664;-63.766;2023-03-04T05:57:21;30.30;37.90
59975;DHT22;62136;-35.664;-63.766;2023-03-04T05:59:48;30.40;37.90
59975;DHT22;62136;-35.664;-63.766;2023-03-04T06:02:15;30.30;37.80
59975;DHT22;62136;-35.664;-63.766;2023-03-04T06:04:42;30.30;38.30
59975;DHT22;62136;-35.664;-63.766;2023-03-04T06:07:08;30.30;37.90
59975;DHT22;62136;-35.664;-63.766;2023-03-04T06:09:35;30.30;38.00
59975;DHT22;62136;-35.664;-63.766;2023-03-04T06:12:03;30.30;37.90
59975;DHT22;62136;-35.664;-63.766;2023-03-04T06:14:30;30.30;37.90
59975;DHT22;62136;-35.664;-63.766;2023-03-04T06:16:57;30.30;37.90
59975;DHT22;62136;-35.664;-63.766;2023-03-04T06:19:24;30.30;38.00
59975;DHT22;62136;-35.664;-63.766;2023-03-04T06:21:50;30.20;37.80
59975;DHT22;62136;-35.664;-63.766;2023-03-04T06:24:17;30.20;37.90
59975;DHT22;62136;-35.664;-63.766;2023-03-04T06:26:45;30.20;37.80
59975;DHT22;62136;-35.664;-63.766;2023-03-04T06:29:12;30.20;37.90
59975;DHT22;62136;-35.664;-63.766;2023-03-04T06:31:39;30.10;37.90
59975;DHT22;62136;-35.664;-63.766;2023-03-04T06:34:10;30.20;37.90
59975;DHT22;62136;-35.664;-63.766;2023-03-04T06:36:37;30.20;38.00
59975;DHT22;62136;-35.664;-63.766;2023-03-04T06:39:07;30.10;37.80
59975;DHT22;62136;-35.664;-63.766;2023-03-04T06:41:35;30.10;38.00
59975;DHT22;62136;-35.664;-63.766;2023-03-04T06:44:02;30.10;38.00
59975;DHT22;62136;-35.664;-63.766;2023-03-04T06:46:29;30.00;37.90
59975;DHT22;62136;-35.664;-63.766;2023-03-04T06:48:56;30.00;37.90
59975;DHT22;62136;-35.664;-63.766;2023-03-04T06:51:23;30.00;38.00
59975;DHT22;62136;-35.664;-63.766;2023-03-04T06:53:50;30.00;38.10
59975;DHT22;62136;-35.664;-63.766;2023-03-04T06:56:17;30.00;37.90
59975;DHT22;62136;-35.664;-63.766;2023-03-04T06:58:45;29.90;37.90
59975;DHT22;62136;-35.664;-63.766;2023-03-04T07:01:19;29.90;38.00
59975;DHT22;62136;-35.664;-63.766;2023-03-04T07:03:47;29.90;38.00
59975;DHT22;62136;-35.664;-63.766;2023-03-04T07:06:16;29.90;38.00
59975;DHT22;62136;-35.664;-63.766;2023-03-04T07:08:44;29.90;38.10
59975;DHT22;62136;-35.664;-63.766;2023-03-04T07:11:11;29.80;37.90
59975;DHT22;62136;-35.664;-63.766;2023-03-04T07:13:38;29.80;38.00
59975;DHT22;62136;-35.664;-63.766;2023-03-04T07:16:11;29.80;38.00
59975;DHT22;62136;-35.664;-63.766;2023-03-04T07:18:39;29.80;38.00
59975;DHT22;62136;-35.664;-63.766;2023-03-04T07:21:07;29.80;37.90
59975;DHT22;62136;-35.664;-63.766;2023-03-04T07:23:34;29.80;38.00
59975;DHT22;62136;-35.664;-63.766;2023-03-04T07:26:02;29.80;37.90
59975;DHT22;62136;-35.664;-63.766;2023-03-04T07:28:30;29.70;37.90
59975;DHT22;62136;-35.664;-63.766;2023-03-04T07:31:06;29.70;37.90
59975;DHT22;62136;-35.664;-63.766;2023-03-04T07:33:33;29.70;38.10
59975;DHT22;62136;-35.664;-63.766;2023-03-04T07:36:00;29.60;37.80
59975;DHT22;62136;-35.664;-63.766;2023-03-04T07:38:27;29.60;38.00
59975;DHT22;62136;-35.664;-63.766;2023-03-04T07:40:57;29.60;37.90
59975;DHT22;62136;-35.664;-63.766;2023-03-04T07:43:25;29.60;38.00
59975;DHT22;62136;-35.664;-63.766;2023-03-04T07:45:57;29.60;37.90
59975;DHT22;62136;-35.664;-63.766;2023-03-04T07:48:24;29.60;38.00
59975;DHT22;62136;-35.664;-63.766;2023-03-04T07:51:20;29.60;37.90
59975;DHT22;62136;-35.664;-63.766;2023-03-04T07:53:49;29.60;37.90
59975;DHT22;62136;-35.664;-63.766;2023-03-04T07:56:19;29.50;37.90
59975;DHT22;62136;-35.664;-63.766;2023-03-04T07:58:46;29.50;37.90
59975;DHT22;62136;-35.664;-63.766;2023-03-04T08:01:20;29.50;37.90
59975;DHT22;62136;-35.664;-63.766;2023-03-04T08:03:47;29.50;38.00
59975;DHT22;62136;-35.664;-63.766;2023-03-04T08:06:15;29.50;37.90
59975;DHT22;62136;-35.664;-63.766;2023-03-04T08:08:43;29.50;38.00
59975;DHT22;62136;-35.664;-63.766;2023-03-04T08:11:13;29.40;37.90
59975;DHT22;62136;-35.664;-63.766;2023-03-04T08:13:41;29.40;37.90
59975;DHT22;62136;-35.664;-63.766;2023-03-04T08:16:09;29.40;37.90
59975;DHT22;62136;-35.664;-63.766;2023-03-04T08:18:37;29.40;37.90
59975;DHT22;62136;-35.664;-63.766;2023-03-04T08:21:09;29.40;37.90
59975;DHT22;62136;-35.664;-63.766;2023-03-04T08:23:36;29.40;37.90
59975;DHT22;62136;-35.664;-63.766;2023-03-04T08:26:13;29.30;37.90
59975;DHT22;62136;-35.664;-63.766;2023-03-04T08:28:41;29.30;38.00
59975;DHT22;62136;-35.664;-63.766;2023-03-04T08:31:08;29.30;38.00
59975;DHT22;62136;-35.664;-63.766;2023-03-04T08:33:35;29.30;38.00
59975;DHT22;62136;-35.664;-63.766;2023-03-04T08:36:02;29.30;38.00
59975;DHT22;62136;-35.664;-63.766;2023-03-04T08:38:29;29.30;38.00
59975;DHT22;62136;-35.664;-63.766;2023-03-04T08:40:57;29.20;37.90
59975;DHT22;62136;-35.664;-63.766;2023-03-04T08:43:25;29.20;37.90
59975;DHT22;62136;-35.664;-63.766;2023-03-04T08:45:53;29.20;38.00
59975;DHT22;62136;-35.664;-63.766;2023-03-04T08:48:21;29.20;38.00
59975;DHT22;62136;-35.664;-63.766;2023-03-04T08:50:49;29.20;38.00
59975;DHT22;62136;-35.664;-63.766;2023-03-04T08:53:17;29.10;37.90
59975;DHT22;62136;-35.664;-63.766;2023-03-04T08:55:45;29.20;37.60
59975;DHT22;62136;-35.664;-63.766;2023-03-04T08:58:12;29.10;37.90
59975;DHT22;62136;-35.664;-63.766;2023-03-04T09:00:42;29.10;38.00
59975;DHT22;62136;-35.664;-63.766;2023-03-04T09:03:14;29.10;38.00
59975;DHT22;62136;-35.664;-63.766;2023-03-04T09:05:43;29.10;38.00
59975;DHT22;62136;-35.664;-63.766;2023-03-04T09:08:11;29.00;38.00
59975;DHT22;62136;-35.664;-63.766;2023-03-04T09:10:38;29.00;38.10
59975;DHT22;62136;-35.664;-63.766;2023-03-04T09:13:06;29.00;38.00
59975;DHT22;62136;-35.664;-63.766;2023-03-04T09:15:33;29.00;38.10
59975;DHT22;62136;-35.664;-63.766;2023-03-04T09:18:02;29.00;38.10
59975;DHT22;62136;-35.664;-63.766;2023-03-04T09:20:30;28.90;38.10
59975;DHT22;62136;-35.664;-63.766;2023-03-04T09:22:58;29.00;38.10
59975;DHT22;62136;-35.664;-63.766;2023-03-04T09:25:25;28.90;38.00
59975;DHT22;62136;-35.664;-63.766;2023-03-04T09:27:52;28.90;38.00
59975;DHT22;62136;-35.664;-63.766;2023-03-04T09:30:19;28.90;38.00
59975;DHT22;62136;-35.664;-63.766;2023-03-04T09:32:46;28.80;38.00
59975;DHT22;62136;-35.664;-63.766;2023-03-04T09:35:13;28.80;38.00
59975;DHT22;62136;-35.664;-63.766;2023-03-04T09:37:40;28.80;38.10
59975;DHT22;62136;-35.664;-63.766;2023-03-04T09:40:12;28.80;38.10
59975;DHT22;62136;-35.664;-63.766;2023-03-04T09:42:51;28.80;38.10
59975;DHT22;62136;-35.664;-63.766;2023-03-04T09:45:22;28.80;38.10
59975;DHT22;62136;-35.664;-63.766;2023-03-04T09:47:52;28.70;38.10
59975;DHT22;62136;-35.664;-63.766;2023-03-04T09:50:20;28.70;38.10
59975;DHT22;62136;-35.664;-63.766;2023-03-04T09:55:38;28.70;38.20
59975;DHT22;62136;-35.664;-63.766;2023-03-04T10:01:30;28.70;38.20
59975;DHT22;62136;-35.664;-63.766;2023-03-04T10:04:29;28.70;38.30
59975;DHT22;62136;-35.664;-63.766;2023-03-04T10:06:59;28.60;38.20
59975;DHT22;62136;-35.664;-63.766;2023-03-04T10:09:56;28.70;38.30
59975;DHT22;62136;-35.664;-63.766;2023-03-04T10:12:21;28.60;38.20
59975;DHT22;62136;-35.664;-63.766;2023-03-04T10:15:03;28.60;38.30
59975;DHT22;62136;-35.664;-63.766;2023-03-04T10:17:36;28.60;38.30
59975;DHT22;62136;-35.664;-63.766;2023-03-04T10:20:18;28.60;38.30
59975;DHT22;62136;-35.664;-63.766;2023-03-04T10:22:48;28.60;38.30
59975;DHT22;62136;-35.664;-63.766;2023-03-04T10:25:22;28.60;38.30
59975;DHT22;62136;-35.664;-63.766;2023-03-04T10:27:52;28.60;38.30
59975;DHT22;62136;-35.664;-63.766;2023-03-04T10:30:47;28.50;38.30
59975;DHT22;62136;-35.664;-63.766;2023-03-04T10:33:19;28.50;38.20
59975;DHT22;62136;-35.664;-63.766;2023-03-04T10:38:37;28.50;38.30
59975;DHT22;62136;-35.664;-63.766;2023-03-04T10:41:13;28.50;38.30
59975;DHT22;62136;-35.664;-63.766;2023-03-04T10:43:40;28.50;38.30
59975;DHT22;62136;-35.664;-63.766;2023-03-04T10:46:11;28.50;38.30
59975;DHT22;62136;-35.664;-63.766;2023-03-04T10:48:41;28.50;38.30
59975;DHT22;62136;-35.664;-63.766;2023-03-04T10:51:24;28.50;38.30
59975;DHT22;62136;-35.664;-63.766;2023-03-04T10:54:06;28.50;38.40
59975;DHT22;62136;-35.664;-63.766;2023-03-04T10:56:40;28.50;38.20
59975;DHT22;62136;-35.664;-63.766;2023-03-04T11:02:31;28.40;38.20
59975;DHT22;62136;-35.664;-63.766;2023-03-04T11:07:45;28.40;38.30
59975;DHT22;62136;-35.664;-63.766;2023-03-04T11:15:26;28.40;38.30
59975;DHT22;62136;-35.664;-63.766;2023-03-04T11:18:13;28.40;38.20
59975;DHT22;62136;-35.664;-63.766;2023-03-04T11:20:47;28.40;38.40
59975;DHT22;62136;-35.664;-63.766;2023-03-04T11:23:30;28.40;38.40
59975;DHT22;62136;-35.664;-63.766;2023-03-04T11:26:05;28.40;38.30
59975;DHT22;62136;-35.664;-63.766;2023-03-04T11:28:41;28.40;38.20
59975;DHT22;62136;-35.664;-63.766;2023-03-04T11:31:19;28.40;38.30
59975;DHT22;62136;-35.664;-63.766;2023-03-04T11:39:09;28.40;38.40
59975;DHT22;62136;-35.664;-63.766;2023-03-04T11:41:37;28.40;38.40
59975;DHT22;62136;-35.664;-63.766;2023-03-04T11:44:06;28.40;38.40
59975;DHT22;62136;-35.664;-63.766;2023-03-04T11:49:40;28.40;38.40
59975;DHT22;62136;-35.664;-63.766;2023-03-04T12:01:32;28.30;38.50
59975;DHT22;62136;-35.664;-63.766;2023-03-04T12:11:59;28.30;38.60
59975;DHT22;62136;-35.664;-63.766;2023-03-04T12:15:25;28.40;38.70
59975;DHT22;62136;-35.664;-63.766;2023-03-04T12:23:19;28.40;38.50
59975;DHT22;62136;-35.664;-63.766;2023-03-04T12:26:06;28.40;38.70
59975;DHT22;62136;-35.664;-63.766;2023-03-04T12:28:50;28.50;38.80
59975;DHT22;62136;-35.664;-63.766;2023-03-04T12:31:33;28.50;38.70
59975;DHT22;62136;-35.664;-63.766;2023-03-04T12:42:22;28.60;39.00
59975;DHT22;62136;-35.664;-63.766;2023-03-04T12:44:55;28.60;39.00
59975;DHT22;62136;-35.664;-63.766;2023-03-04T12:55:43;28.60;38.90
59975;DHT22;62136;-35.664;-63.766;2023-03-04T12:58:19;28.60;38.90
59975;DHT22;62136;-35.664;-63.766;2023-03-04T13:01:25;28.70;38.80
59975;DHT22;62136;-35.664;-63.766;2023-03-04T13:07:07;28.70;38.90
59975;DHT22;62136;-35.664;-63.766;2023-03-04T13:12:19;28.70;39.10
59975;DHT22;62136;-35.664;-63.766;2023-03-04T13:17:41;28.70;39.30
59975;DHT22;62136;-35.664;-63.766;2023-03-04T13:20:36;28.80;39.30
59975;DHT22;62136;-35.664;-63.766;2023-03-04T13:23:26;28.80;39.40
59975;DHT22;62136;-35.664;-63.766;2023-03-04T13:51:40;28.90;39.40
59975;DHT22;62136;-35.664;-63.766;2023-03-04T13:56:44;28.90;39.50
59975;DHT22;62136;-35.664;-63.766;2023-03-04T13:59:37;29.00;39.60
59975;DHT22;62136;-35.664;-63.766;2023-03-04T14:02:19;29.00;39.70
59975;DHT22;62136;-35.664;-63.766;2023-03-04T14:04:58;29.00;39.70
59975;DHT22;62136;-35.664;-63.766;2023-03-04T14:07:33;29.10;39.70
59975;DHT22;62136;-35.664;-63.766;2023-03-04T14:12:36;29.10;39.60
59975;DHT22;62136;-35.664;-63.766;2023-03-04T14:15:27;29.10;39.60
59975;DHT22;62136;-35.664;-63.766;2023-03-04T14:17:57;29.10;39.80
59975;DHT22;62136;-35.664;-63.766;2023-03-04T14:20:37;29.10;39.60
59975;DHT22;62136;-35.664;-63.766;2023-03-04T14:23:24;29.10;39.80
59975;DHT22;62136;-35.664;-63.766;2023-03-04T14:25:59;29.20;39.90
59975;DHT22;62136;-35.664;-63.766;2023-03-04T14:28:28;29.10;39.70
59975;DHT22;62136;-35.664;-63.766;2023-03-04T14:30:56;29.20;39.70
59975;DHT22;62136;-35.664;-63.766;2023-03-04T14:33:28;29.20;39.70
59975;DHT22;62136;-35.664;-63.766;2023-03-04T14:35:59;29.20;39.90
59975;DHT22;62136;-35.664;-63.766;2023-03-04T14:38:34;29.20;39.70
59975;DHT22;62136;-35.664;-63.766;2023-03-04T14:41:18;29.30;39.90
59975;DHT22;62136;-35.664;-63.766;2023-03-04T14:44:28;29.20;39.80
59975;DHT22;62136;-35.664;-63.766;2023-03-04T14:46:49;29.30;39.80
59975;DHT22;62136;-35.664;-63.766;2023-03-04T14:49:19;29.30;39.90
59975;DHT22;62136;-35.664;-63.766;2023-03-04T14:51:51;29.30;39.80
59975;DHT22;62136;-35.664;-63.766;2023-03-04T14:54:45;29.30;39.80
59975;DHT22;62136;-35.664;-63.766;2023-03-04T14:57:27;29.30;40.00
59975;DHT22;62136;-35.664;-63.766;2023-03-04T15:02:52;29.40;40.00
59975;DHT22;62136;-35.664;-63.766;2023-03-04T15:05:30;29.40;39.90
59975;DHT22;62136;-35.664;-63.766;2023-03-04T15:08:23;29.40;40.00
59975;DHT22;62136;-35.664;-63.766;2023-03-04T15:11:03;29.50;40.50
59975;DHT22;62136;-35.664;-63.766;2023-03-04T15:13:40;29.40;39.90
59975;DHT22;62136;-35.664;-63.766;2023-03-04T15:16:10;29.50;40.00
59975;DHT22;62136;-35.664;-63.766;2023-03-04T15:18:38;29.50;40.10
59975;DHT22;62136;-35.664;-63.766;2023-03-04T15:24:02;29.60;40.30
59975;DHT22;62136;-35.664;-63.766;2023-03-04T15:26:31;29.60;40.10
59975;DHT22;62136;-35.664;-63.766;2023-03-04T15:28:59;29.60;40.50
59975;DHT22;62136;-35.664;-63.766;2023-03-04T15:31:28;29.60;39.80
59975;DHT22;62136;-35.664;-63.766;2023-03-04T15:33:55;29.60;40.10
59975;DHT22;62136;-35.664;-63.766;2023-03-04T15:36:22;29.60;40.10
59975;DHT22;62136;-35.664;-63.766;2023-03-04T15:38:51;29.60;39.60
59975;DHT22;62136;-35.664;-63.766;2023-03-04T15:41:25;29.70;40.10
59975;DHT22;62136;-35.664;-63.766;2023-03-04T15:43:53;29.70;40.00
59975;DHT22;62136;-35.664;-63.766;2023-03-04T15:46:20;29.70;40.10
59975;DHT22;62136;-35.664;-63.766;2023-03-04T15:48:47;29.70;40.00
59975;DHT22;62136;-35.664;-63.766;2023-03-04T15:51:19;29.70;40.00
59975;DHT22;62136;-35.664;-63.766;2023-03-04T15:53:55;29.70;40.00
59975;DHT22;62136;-35.664;-63.766;2023-03-04T15:56:25;29.70;39.90
59975;DHT22;62136;-35.664;-63.766;2023-03-04T15:59:05;29.80;40.00
59975;DHT22;62136;-35.664;-63.766;2023-03-04T16:01:32;29.80;40.00
59975;DHT22;62136;-35.664;-63.766;2023-03-04T16:03:59;29.80;40.00
59975;DHT22;62136;-35.664;-63.766;2023-03-04T16:06:29;29.80;40.10
59975;DHT22;62136;-35.664;-63.766;2023-03-04T16:08:57;29.80;40.10
59975;DHT22;62136;-35.664;-63.766;2023-03-04T16:11:27;29.90;40.00
59975;DHT22;62136;-35.664;-63.766;2023-03-04T16:13:55;29.90;40.20
59975;DHT22;62136;-35.664;-63.766;2023-03-04T16:16:22;29.90;40.00
59975;DHT22;62136;-35.664;-63.766;2023-03-04T16:18:49;29.90;40.20
59975;DHT22;62136;-35.664;-63.766;2023-03-04T16:21:19;29.90;40.10
59975;DHT22;62136;-35.664;-63.766;2023-03-04T16:23:49;29.90;40.30
59975;DHT22;62136;-35.664;-63.766;2023-03-04T16:26:23;30.00;40.20
59975;DHT22;62136;-35.664;-63.766;2023-03-04T16:28:51;30.00;40.10
59975;DHT22;62136;-35.664;-63.766;2023-03-04T16:31:20;30.00;40.20
59975;DHT22;62136;-35.664;-63.766;2023-03-04T16:33:47;30.00;40.10
59975;DHT22;62136;-35.664;-63.766;2023-03-04T16:36:21;30.00;40.20
59975;DHT22;62136;-35.664;-63.766;2023-03-04T16:38:49;30.10;40.00
59975;DHT22;62136;-35.664;-63.766;2023-03-04T16:41:21;30.10;40.20
59975;DHT22;62136;-35.664;-63.766;2023-03-04T16:43:48;30.10;40.30
59975;DHT22;62136;-35.664;-63.766;2023-03-04T16:46:15;30.10;40.20
59975;DHT22;62136;-35.664;-63.766;2023-03-04T16:48:42;30.10;40.20
59975;DHT22;62136;-35.664;-63.766;2023-03-04T16:51:29;30.10;40.10
59975;DHT22;62136;-35.664;-63.766;2023-03-04T16:54:00;30.20;40.30
59975;DHT22;62136;-35.664;-63.766;2023-03-04T16:56:28;30.20;40.30
59975;DHT22;62136;-35.664;-63.766;2023-03-04T16:58:56;30.20;40.40
59975;DHT22;62136;-35.664;-63.766;2023-03-04T17:01:25;30.20;40.30
59975;DHT22;62136;-35.664;-63.766;2023-03-04T17:03:53;30.20;40.20
59975;DHT22;62136;-35.664;-63.766;2023-03-04T17:06:22;30.20;40.40